Time,TemperatureF,DewpointF,PressureIn,WindDirection,WindDirectionDegrees,WindSpeedMPH,WindSpeedGustMPH,Humidity,HourlyPrecipIn,Conditions,Clouds,dailyrainin,SoftwareType,DateUTC
2013-03-07 00:03:00,43.5,32.5,30.28,East,92,0.0,2.0,65,0.00,,---,0.00,VWS V14.01,2013-03-07 06:03:00,
2013-03-07 00:06:00,43.1,33.6,30.28,East,92,0.0,2.0,69,0.00,,---,0.00,VWS V14.01,2013-03-07 06:06:00,
2013-03-07 00:08:00,42.8,34.1,30.28,East,92,0.0,0.0,71,0.00,,---,0.00,VWS V14.01,2013-03-07 06:08:00,
2013-03-07 00:13:00,42.6,33.2,30.28,East,92,1.0,2.0,69,0.00,,---,0.00,VWS V14.01,2013-03-07 06:13:00,
2013-03-07 00:18:00,42.9,33.1,30.28,East,92,1.0,2.0,68,0.00,,---,0.00,VWS V14.01,2013-03-07 06:18:00,
2013-03-07 00:23:00,42.8,33.3,30.28,East,92,0.0,2.0,69,0.00,,---,0.00,VWS V14.01,2013-03-07 06:23:00,
2013-03-07 00:28:00,42.4,33.7,30.28,East,92,0.0,2.0,71,0.00,,---,0.00,VWS V14.01,2013-03-07 06:28:00,
2013-03-07 00:33:00,42.0,34.0,30.28,East,92,0.0,2.0,73,0.00,,---,0.00,VWS V14.01,2013-03-07 06:33:00,
2013-03-07 00:36:00,42.1,34.4,30.28,East,92,0.0,2.0,74,0.00,,---,0.00,VWS V14.01,2013-03-07 06:36:00,
2013-03-07 00:38:00,42.1,34.4,30.28,East,92,0.0,0.0,74,0.00,,---,0.00,VWS V14.01,2013-03-07 06:38:00,
2013-03-07 00:43:00,42.4,33.7,30.28,East,92,2.0,2.0,71,0.00,,---,0.00,VWS V14.01,2013-03-07 06:43:00,
2013-03-07 00:48:00,42.7,33.2,30.27,East,92,1.0,2.0,69,0.00,,---,0.00,VWS V14.01,2013-03-07 06:48:00,
2013-03-07 00:53:00,42.9,33.1,30.27,East,92,2.0,3.0,68,0.00,,---,0.00,VWS V14.01,2013-03-07 06:53:00,
2013-03-07 00:58:00,43.0,32.8,30.28,East,92,1.0,3.0,67,0.00,,---,0.00,VWS V14.01,2013-03-07 06:58:00,
2013-03-07 01:03:00,43.1,32.9,30.28,East,92,1.0,3.0,67,0.00,,---,0.00,VWS V14.01,2013-03-07 07:03:00,
2013-03-07 01:06:00,43.0,33.2,30.28,East,92,0.0,3.0,68,0.00,,---,0.00,VWS V14.01,2013-03-07 07:06:00,
2013-03-07 01:08:00,42.8,33.3,30.28,East,92,0.0,0.0,69,0.00,,---,0.00,VWS V14.01,2013-03-07 07:08:00,
2013-03-07 01:13:00,42.5,33.1,30.28,East,92,0.0,1.0,69,0.00,,---,0.00,VWS V14.01,2013-03-07 07:13:00,
2013-03-07 01:18:00,42.6,33.2,30.28,East,92,2.0,2.0,69,0.00,,---,0.00,VWS V14.01,2013-03-07 07:18:00,
2013-03-07 01:23:00,42.6,33.2,30.28,East,92,1.0,2.0,69,0.00,,---,0.00,VWS V14.01,2013-03-07 07:23:00,
2013-03-07 01:28:00,42.8,32.6,30.28,East,92,1.0,2.0,67,0.00,,---,0.00,VWS V14.01,2013-03-07 07:28:00,
2013-03-07 01:33:00,42.8,33.7,30.29,East,92,0.0,2.0,70,0.00,,---,0.00,VWS V14.01,2013-03-07 07:33:00,
2013-03-07 01:38:00,42.3,33.6,30.29,East,92,0.0,1.0,71,0.00,,---,0.00,VWS V14.01,2013-03-07 07:38:00,
2013-03-07 01:43:00,42.0,34.0,30.29,East,92,0.0,1.0,73,0.00,,---,0.00,VWS V14.01,2013-03-07 07:43:00,
2013-03-07 01:48:00,41.9,34.2,30.29,East,92,0.0,1.0,74,0.00,,---,0.00,VWS V14.01,2013-03-07 07:48:00,
2013-03-07 01:53:00,41.9,34.2,30.29,East,92,0.0,1.0,74,0.00,,---,0.00,VWS V14.01,2013-03-07 07:53:00,
2013-03-07 01:58:00,41.6,33.9,30.28,East,92,0.0,1.0,74,0.00,,---,0.00,VWS V14.01,2013-03-07 07:58:00,
2013-03-07 02:03:00,41.6,34.6,30.28,East,92,0.0,1.0,76,0.00,,---,0.00,VWS V14.01,2013-03-07 08:03:00,
2013-03-07 02:08:00,41.3,34.3,30.28,East,92,0.0,0.0,76,0.00,,---,0.00,VWS V14.01,2013-03-07 08:08:00,
2013-03-07 02:13:00,40.6,33.6,30.28,East,92,0.0,0.0,76,0.00,,---,0.00,VWS V14.01,2013-03-07 08:13:00,
2013-03-07 02:18:00,40.3,33.3,30.27,East,92,0.0,0.0,76,0.00,,---,0.00,VWS V14.01,2013-03-07 08:18:00,
2013-03-07 02:23:00,40.1,33.8,30.27,East,92,0.0,1.0,78,0.00,,---,0.00,VWS V14.01,2013-03-07 08:23:00,
2013-03-07 02:28:00,39.6,34.0,30.28,East,92,0.0,1.0,80,0.00,,---,0.00,VWS V14.01,2013-03-07 08:28:00,
2013-03-07 02:33:00,38.7,33.7,30.28,East,92,0.0,1.0,82,0.00,,---,0.00,VWS V14.01,2013-03-07 08:33:00,
2013-03-07 02:36:00,38.4,33.4,30.27,East,92,0.0,1.0,82,0.00,,---,0.00,VWS V14.01,2013-03-07 08:36:00,
2013-03-07 02:38:00,38.4,33.7,30.27,East,92,0.0,0.0,83,0.00,,---,0.00,VWS V14.01,2013-03-07 08:38:00,
2013-03-07 02:43:00,38.4,33.7,30.27,East,92,0.0,0.0,83,0.00,,---,0.00,VWS V14.01,2013-03-07 08:43:00,
2013-03-07 02:48:00,38.2,33.5,30.27,East,92,0.0,0.0,83,0.00,,---,0.00,VWS V14.01,2013-03-07 08:48:00,
2013-03-07 02:53:00,38.0,33.3,30.27,East,92,0.0,0.0,83,0.00,,---,0.00,VWS V14.01,2013-03-07 08:53:00,
2013-03-07 02:58:00,37.9,33.5,30.27,East,92,0.0,0.0,84,0.00,,---,0.00,VWS V14.01,2013-03-07 08:58:00,
2013-03-07 03:03:00,37.7,33.3,30.27,East,92,0.0,0.0,84,0.00,,---,0.00,VWS V14.01,2013-03-07 09:03:00,
2013-03-07 03:06:00,37.5,33.1,30.26,East,92,0.0,0.0,84,0.00,,---,0.00,VWS V14.01,2013-03-07 09:06:00,
2013-03-07 03:13:00,36.9,33.1,30.27,East,92,0.0,0.0,86,0.00,,---,0.00,VWS V14.01,2013-03-07 09:13:00,
2013-03-07 03:18:00,36.7,32.9,30.27,East,92,0.0,0.0,86,0.00,,---,0.00,VWS V14.01,2013-03-07 09:18:00,
2013-03-07 03:23:00,36.7,32.9,30.27,East,92,0.0,0.0,86,0.00,,---,0.00,VWS V14.01,2013-03-07 09:23:00,
2013-03-07 03:29:00,36.5,33.0,30.28,East,92,0.0,0.0,87,0.00,,---,0.00,VWS V14.01,2013-03-07 09:29:00,
2013-03-07 03:34:00,36.4,32.9,30.27,East,92,0.0,0.0,87,0.00,,---,0.00,VWS V14.01,2013-03-07 09:34:00,
2013-03-07 03:36:00,36.2,32.7,30.27,East,92,0.0,0.0,87,0.00,,---,0.00,VWS V14.01,2013-03-07 09:36:00,
2013-03-07 03:44:00,35.8,32.3,30.27,East,92,0.0,0.0,87,0.00,,---,0.00,VWS V14.01,2013-03-07 09:44:00,
2013-03-07 03:49:00,35.6,32.1,30.27,East,92,0.0,0.0,87,0.00,,---,0.00,VWS V14.01,2013-03-07 09:49:00,
2013-03-07 03:54:00,35.3,32.1,30.27,East,92,0.0,0.0,88,0.00,,---,0.00,VWS V14.01,2013-03-07 09:54:00,
2013-03-07 03:59:00,35.0,31.8,30.28,East,92,0.0,0.0,88,0.00,,---,0.00,VWS V14.01,2013-03-07 09:59:00,
2013-03-07 04:04:00,34.7,31.8,30.28,East,92,0.0,0.0,89,0.00,,---,0.00,VWS V14.01,2013-03-07 10:04:00,
2013-03-07 04:06:00,34.6,31.7,30.28,East,92,0.0,0.0,89,0.00,,---,0.00,VWS V14.01,2013-03-07 10:06:00,
2013-03-07 04:09:00,34.5,31.9,30.28,East,92,0.0,0.0,90,0.00,,---,0.00,VWS V14.01,2013-03-07 10:09:00,
2013-03-07 04:14:00,34.4,31.8,30.28,East,92,0.0,0.0,90,0.00,,---,0.00,VWS V14.01,2013-03-07 10:14:00,
2013-03-07 04:19:00,34.4,31.8,30.28,East,92,0.0,0.0,90,0.00,,---,0.00,VWS V14.01,2013-03-07 10:19:00,
2013-03-07 04:24:00,34.4,31.8,30.28,East,92,0.0,0.0,90,0.00,,---,0.00,VWS V14.01,2013-03-07 10:24:00,
2013-03-07 04:29:00,34.4,31.8,30.28,East,92,0.0,0.0,90,0.00,,---,0.00,VWS V14.01,2013-03-07 10:29:00,
2013-03-07 04:34:00,34.2,31.6,30.28,East,92,0.0,0.0,90,0.00,,---,0.00,VWS V14.01,2013-03-07 10:34:00,
2013-03-07 04:39:00,34.1,31.5,30.28,East,92,1.0,1.0,90,0.00,,---,0.00,VWS V14.01,2013-03-07 10:39:00,
2013-03-07 04:44:00,33.9,31.3,30.28,East,92,0.0,2.0,90,0.00,,---,0.00,VWS V14.01,2013-03-07 10:44:00,
2013-03-07 04:49:00,33.7,31.1,30.27,East,92,0.0,2.0,90,0.00,,---,0.00,VWS V14.01,2013-03-07 10:49:00,
2013-03-07 04:54:00,33.6,31.3,30.28,East,92,0.0,2.0,91,0.00,,---,0.00,VWS V14.01,2013-03-07 10:54:00,
2013-03-07 04:59:00,33.5,31.2,30.28,East,92,0.0,2.0,91,0.00,,---,0.00,VWS V14.01,2013-03-07 10:59:00,
2013-03-07 05:04:00,33.3,31.0,30.28,East,92,0.0,2.0,91,0.00,,---,0.00,VWS V14.01,2013-03-07 11:04:00,
2013-03-07 05:06:00,33.2,30.9,30.28,East,92,0.0,2.0,91,0.00,,---,0.00,VWS V14.01,2013-03-07 11:06:00,
2013-03-07 05:14:00,33.4,31.3,30.28,East,92,0.0,0.0,92,0.00,,---,0.00,VWS V14.01,2013-03-07 11:14:00,
2013-03-07 05:19:00,33.1,31.0,30.29,East,92,0.0,0.0,92,0.00,,---,0.00,VWS V14.01,2013-03-07 11:19:00,
2013-03-07 05:24:00,33.0,30.9,30.29,East,92,0.0,0.0,92,0.00,,---,0.00,VWS V14.01,2013-03-07 11:24:00,
2013-03-07 05:29:00,33.0,30.9,30.29,East,92,0.0,0.0,92,0.00,,---,0.00,VWS V14.01,2013-03-07 11:29:00,
2013-03-07 05:34:00,33.1,31.0,30.29,East,92,0.0,0.0,92,0.00,,---,0.00,VWS V14.01,2013-03-07 11:34:00,
2013-03-07 05:36:00,33.1,31.0,30.29,East,92,0.0,0.0,92,0.00,,---,0.00,VWS V14.01,2013-03-07 11:36:00,
2013-03-07 05:44:00,33.0,30.9,30.29,East,92,0.0,0.0,92,0.00,,---,0.00,VWS V14.01,2013-03-07 11:44:00,
2013-03-07 05:49:00,33.0,30.9,30.29,East,92,0.0,0.0,92,0.00,,---,0.00,VWS V14.01,2013-03-07 11:49:00,
2013-03-07 05:54:00,32.8,30.7,30.29,East,92,0.0,0.0,92,0.00,,---,0.00,VWS V14.01,2013-03-07 11:54:00,
2013-03-07 05:59:00,32.6,30.5,30.30,East,92,0.0,0.0,92,0.00,,---,0.00,VWS V14.01,2013-03-07 11:59:00,
2013-03-07 06:04:00,32.6,30.5,30.30,East,92,0.0,0.0,92,0.00,,---,0.00,VWS V14.01,2013-03-07 12:04:00,
2013-03-07 06:09:00,32.6,30.8,30.31,East,92,0.0,0.0,93,0.00,,---,0.00,VWS V14.01,2013-03-07 12:09:00,
2013-03-07 06:14:00,32.6,30.8,30.31,East,92,0.0,0.0,93,0.00,,---,0.00,VWS V14.01,2013-03-07 12:14:00,
2013-03-07 06:19:00,32.4,30.6,30.31,East,92,0.0,0.0,93,0.00,,---,0.00,VWS V14.01,2013-03-07 12:19:00,
2013-03-07 06:24:00,32.3,30.5,30.31,East,92,0.0,0.0,93,0.00,,---,0.00,VWS V14.01,2013-03-07 12:24:00,
2013-03-07 06:29:00,32.1,30.3,30.31,East,92,0.0,1.0,93,0.00,,---,0.00,VWS V14.01,2013-03-07 12:29:00,
2013-03-07 06:34:00,32.0,30.2,30.32,East,92,0.0,1.0,93,0.00,,---,0.00,VWS V14.01,2013-03-07 12:34:00,
2013-03-07 06:39:00,32.0,30.2,30.32,East,92,0.0,0.0,93,0.00,,---,0.00,VWS V14.01,2013-03-07 12:39:00,
2013-03-07 06:44:00,31.9,30.1,30.32,East,92,0.0,0.0,93,0.00,,---,0.00,VWS V14.01,2013-03-07 12:44:00,
2013-03-07 06:49:00,32.0,30.2,30.33,North,355,0.0,0.0,93,0.00,,---,0.00,VWS V14.01,2013-03-07 12:49:00,
2013-03-07 06:54:00,32.2,30.4,30.33,North,355,0.0,0.0,93,0.00,,---,0.00,VWS V14.01,2013-03-07 12:54:00,
2013-03-07 06:59:00,32.6,31.1,30.33,WNW,301,0.0,0.0,94,0.00,,---,0.00,VWS V14.01,2013-03-07 12:59:00,
2013-03-07 07:05:00,32.9,31.4,30.33,WNW,301,0.0,0.0,94,0.00,,---,0.00,VWS V14.01,2013-03-07 13:05:00,
2013-03-07 07:10:00,33.2,31.7,30.33,WNW,301,0.0,0.0,94,0.00,,---,0.00,VWS V14.01,2013-03-07 13:10:00,
2013-03-07 07:15:00,33.6,31.8,30.33,NNW,337,0.0,1.0,93,0.00,,---,0.00,VWS V14.01,2013-03-07 13:15:00,
2013-03-07 07:20:00,33.9,32.1,30.33,NNW,337,0.0,1.0,93,0.00,,---,0.00,VWS V14.01,2013-03-07 13:20:00,
2013-03-07 07:25:00,34.3,32.5,30.34,NNW,337,0.0,1.0,93,0.00,,---,0.00,VWS V14.01,2013-03-07 13:25:00,
2013-03-07 07:30:00,34.7,32.9,30.34,NNW,337,0.0,1.0,93,0.00,,---,0.00,VWS V14.01,2013-03-07 13:30:00,
2013-03-07 07:35:00,35.2,33.4,30.34,NNW,337,0.0,1.0,93,0.00,,---,0.00,VWS V14.01,2013-03-07 13:35:00,
2013-03-07 07:36:00,35.4,33.6,30.34,NNW,337,0.0,1.0,93,0.00,,---,0.00,VWS V14.01,2013-03-07 13:36:00,
2013-03-07 07:40:00,35.9,34.1,30.34,NNW,337,0.0,0.0,93,0.00,,---,0.00,VWS V14.01,2013-03-07 13:40:00,
2013-03-07 07:45:00,36.5,34.4,30.35,NNW,337,0.0,0.0,92,0.00,,---,0.00,VWS V14.01,2013-03-07 13:45:00,
2013-03-07 07:50:00,37.3,34.9,30.35,NNW,337,0.0,0.0,91,0.00,,---,0.00,VWS V14.01,2013-03-07 13:50:00,
2013-03-07 07:55:00,38.7,35.2,30.36,NW,325,0.0,1.0,87,0.00,,---,0.00,VWS V14.01,2013-03-07 13:55:00,
2013-03-07 08:00:00,39.8,35.7,30.36,ENE,61,2.0,2.0,85,0.00,,---,0.00,VWS V14.01,2013-03-07 14:00:00,
2013-03-07 08:05:00,40.9,35.2,30.36,ENE,70,2.0,3.0,80,0.00,,---,0.00,VWS V14.01,2013-03-07 14:05:00,
2013-03-07 08:10:00,41.8,35.5,30.36,ESE,105,2.0,3.0,78,0.00,,---,0.00,VWS V14.01,2013-03-07 14:10:00,
2013-03-07 08:15:00,42.5,35.2,30.36,East,92,3.0,5.0,75,0.00,,---,0.00,VWS V14.01,2013-03-07 14:15:00,
2013-03-07 08:20:00,43.1,34.7,30.36,East,84,2.0,6.0,72,0.00,,---,0.00,VWS V14.01,2013-03-07 14:20:00,
2013-03-07 08:25:00,43.7,34.6,30.36,East,101,3.0,6.0,70,0.00,,---,0.00,VWS V14.01,2013-03-07 14:25:00,
2013-03-07 08:30:00,44.2,35.0,30.37,SE,126,3.0,6.0,70,0.00,,---,0.00,VWS V14.01,2013-03-07 14:30:00,
2013-03-07 08:36:00,45.0,35.1,30.36,ESE,113,2.0,6.0,68,0.00,,---,0.00,VWS V14.01,2013-03-07 14:36:00,
2013-03-07 08:40:00,45.2,34.9,30.37,East,87,2.0,4.0,67,0.00,,---,0.00,VWS V14.01,2013-03-07 14:40:00,
2013-03-07 08:45:00,46.0,35.7,30.37,East,101,2.0,5.0,67,0.00,,---,0.00,VWS V14.01,2013-03-07 14:45:00,
2013-03-07 08:50:00,46.4,36.0,30.36,ESE,104,3.0,5.0,67,0.00,,---,0.00,VWS V14.01,2013-03-07 14:50:00,
2013-03-07 08:55:00,46.6,35.5,30.36,ESE,108,2.0,5.0,65,0.00,,---,0.00,VWS V14.01,2013-03-07 14:55:00,
2013-03-07 09:00:00,47.3,36.2,30.36,ESE,107,2.0,5.0,65,0.00,,---,0.00,VWS V14.01,2013-03-07 15:00:00,
2013-03-07 09:05:00,47.8,35.4,30.36,East,90,2.0,5.0,62,0.00,,---,0.00,VWS V14.01,2013-03-07 15:05:00,
2013-03-07 09:10:00,48.6,37.0,30.36,East,82,2.0,5.0,64,0.00,,---,0.00,VWS V14.01,2013-03-07 15:10:00,
2013-03-07 09:15:00,49.0,36.6,30.36,East,96,2.0,5.0,62,0.00,,---,0.00,VWS V14.01,2013-03-07 15:15:00,
2013-03-07 09:20:00,49.3,36.0,30.36,ESE,121,2.0,5.0,60,0.00,,---,0.00,VWS V14.01,2013-03-07 15:20:00,
2013-03-07 09:25:00,49.7,35.1,30.36,ESE,109,2.0,5.0,57,0.00,,---,0.00,VWS V14.01,2013-03-07 15:25:00,
2013-03-07 09:30:00,49.9,35.3,30.36,East,80,2.0,5.0,57,0.00,,---,0.00,VWS V14.01,2013-03-07 15:30:00,
2013-03-07 09:35:00,50.5,35.0,30.36,East,87,2.0,6.0,55,0.00,,---,0.00,VWS V14.01,2013-03-07 15:35:00,
2013-03-07 09:36:00,50.6,35.5,30.36,East,87,3.0,6.0,56,0.00,,---,0.00,VWS V14.01,2013-03-07 15:36:00,
2013-03-07 09:40:00,50.9,34.9,30.36,ENE,71,3.0,6.0,54,0.00,,---,0.00,VWS V14.01,2013-03-07 15:40:00,
2013-03-07 09:46:00,51.2,35.6,30.36,ENE,76,2.0,6.0,55,0.00,,---,0.00,VWS V14.01,2013-03-07 15:46:00,
2013-03-07 09:51:00,51.7,35.6,30.36,SE,129,5.0,6.0,54,0.00,,---,0.00,VWS V14.01,2013-03-07 15:51:00,
2013-03-07 09:56:00,51.3,34.3,30.36,SSE,148,2.0,6.0,52,0.00,,---,0.00,VWS V14.01,2013-03-07 15:56:00,
2013-03-07 10:01:00,52.5,36.8,30.35,East,97,2.0,6.0,55,0.00,,---,0.00,VWS V14.01,2013-03-07 16:01:00,
2013-03-07 10:06:00,53.0,35.9,30.35,ENE,70,4.0,6.0,52,0.00,,---,0.00,VWS V14.01,2013-03-07 16:06:00,
2013-03-07 10:11:00,52.9,35.8,30.35,ENE,66,5.0,5.0,52,0.00,,---,0.00,VWS V14.01,2013-03-07 16:11:00,
2013-03-07 10:16:00,53.5,34.8,30.35,East,93,5.0,7.0,49,0.00,,---,0.00,VWS V14.01,2013-03-07 16:16:00,
2013-03-07 10:21:00,53.3,34.7,30.35,ESE,107,2.0,7.0,49,0.00,,---,0.00,VWS V14.01,2013-03-07 16:21:00,
2013-03-07 10:26:00,53.8,35.1,30.35,ESE,102,3.0,7.0,49,0.00,,---,0.00,VWS V14.01,2013-03-07 16:26:00,
2013-03-07 10:31:00,54.1,34.9,30.35,SSE,147,1.0,7.0,48,0.00,,---,0.00,VWS V14.01,2013-03-07 16:31:00,
2013-03-07 10:36:00,55.0,36.7,30.35,NE,54,3.0,7.0,50,0.00,,---,0.00,VWS V14.01,2013-03-07 16:36:00,
2013-03-07 10:41:00,55.8,35.9,30.35,East,85,3.0,8.0,47,0.00,,---,0.00,VWS V14.01,2013-03-07 16:41:00,
2013-03-07 10:46:00,55.9,36.0,30.35,ENE,57,0.0,8.0,47,0.00,,---,0.00,VWS V14.01,2013-03-07 16:46:00,
2013-03-07 10:51:00,55.6,35.2,30.35,ENE,62,4.0,8.0,46,0.00,,---,0.00,VWS V14.01,2013-03-07 16:51:00,
2013-03-07 10:56:00,56.2,35.7,30.35,ESE,117,3.0,8.0,46,0.00,,---,0.00,VWS V14.01,2013-03-07 16:56:00,
2013-03-07 11:01:00,56.1,35.6,30.35,NW,309,1.0,8.0,46,0.00,,---,0.00,VWS V14.01,2013-03-07 17:01:00,
2013-03-07 11:06:00,56.8,35.1,30.35,East,101,3.0,8.0,44,0.00,,---,0.00,VWS V14.01,2013-03-07 17:06:00,
2013-03-07 11:11:00,56.5,34.3,30.35,East,92,1.0,6.0,43,0.00,,---,0.00,VWS V14.01,2013-03-07 17:11:00,
2013-03-07 11:16:00,58.1,35.2,30.35,ENE,73,2.0,6.0,42,0.00,,---,0.00,VWS V14.01,2013-03-07 17:16:00,
2013-03-07 11:21:00,57.7,34.8,30.35,East,96,3.0,6.0,42,0.00,,---,0.00,VWS V14.01,2013-03-07 17:21:00,
2013-03-07 11:26:00,57.9,34.4,30.34,ESE,121,4.0,6.0,41,0.00,,---,0.00,VWS V14.01,2013-03-07 17:26:00,
2013-03-07 11:31:00,57.7,33.6,30.34,NE,51,0.0,6.0,40,0.00,,---,0.00,VWS V14.01,2013-03-07 17:31:00,
2013-03-07 11:36:00,58.6,35.0,30.33,NE,55,1.0,6.0,41,0.00,,---,0.00,VWS V14.01,2013-03-07 17:36:00,
2013-03-07 11:41:00,58.7,35.1,30.33,ENE,76,2.0,6.0,41,0.00,,---,0.00,VWS V14.01,2013-03-07 17:41:00,
2013-03-07 11:46:00,58.5,34.3,30.33,ENE,60,1.0,6.0,40,0.00,,---,0.00,VWS V14.01,2013-03-07 17:46:00,
2013-03-07 11:51:00,59.4,35.1,30.32,East,88,2.0,6.0,40,0.00,,---,0.00,VWS V14.01,2013-03-07 17:51:00,
2013-03-07 11:56:00,59.9,35.5,30.32,ESE,121,4.0,6.0,40,0.00,,---,0.00,VWS V14.01,2013-03-07 17:56:00,
2013-03-07 12:01:00,59.4,33.8,30.32,East,86,2.0,6.0,38,0.00,,---,0.00,VWS V14.01,2013-03-07 18:01:00,
2013-03-07 12:06:00,59.9,36.8,30.32,SSW,209,1.0,6.0,42,0.00,,---,0.00,VWS V14.01,2013-03-07 18:06:00,
2013-03-07 12:11:00,59.7,33.4,30.32,South,170,1.0,6.0,37,0.00,,---,0.00,VWS V14.01,2013-03-07 18:11:00,
2013-03-07 12:22:00,60.5,36.1,30.31,ENE,57,2.0,6.0,40,0.00,,---,0.00,VWS V14.01,2013-03-07 18:22:00,
2013-03-07 12:27:00,60.7,32.9,30.31,ESE,116,5.0,6.0,35,0.00,,---,0.00,VWS V14.01,2013-03-07 18:27:00,
2013-03-07 12:32:00,59.9,34.9,30.31,NE,36,2.0,6.0,39,0.00,,---,0.00,VWS V14.01,2013-03-07 18:32:00,
2013-03-07 12:36:00,60.2,33.2,30.30,SE,146,1.0,6.0,36,0.00,,---,0.00,VWS V14.01,2013-03-07 18:36:00,
2013-03-07 12:42:00,60.8,33.0,30.30,WNW,296,0.0,4.0,35,0.00,,---,0.00,VWS V14.01,2013-03-07 18:42:00,
2013-03-07 12:47:00,62.8,40.0,30.30,ENE,62,3.0,4.0,43,0.00,,---,0.00,VWS V14.01,2013-03-07 18:47:00,
2013-03-07 12:57:00,61.9,33.2,30.29,SW,221,1.0,6.0,34,0.00,,---,0.00,VWS V14.01,2013-03-07 18:57:00,
2013-03-07 13:02:00,63.2,36.5,30.29,NW,308,2.0,6.0,37,0.00,,---,0.00,VWS V14.01,2013-03-07 19:02:00,
2013-03-07 13:06:00,63.6,34.0,30.29,ENE,64,1.0,6.0,33,0.00,,---,0.00,VWS V14.01,2013-03-07 19:06:00,
2013-03-07 13:07:00,63.8,35.7,30.29,ENE,71,1.0,3.0,35,0.00,,---,0.00,VWS V14.01,2013-03-07 19:07:00,
2013-03-07 13:17:00,64.0,37.2,30.28,NW,306,6.0,6.0,37,0.00,,---,0.00,VWS V14.01,2013-03-07 19:17:00,
2013-03-07 13:22:00,64.3,33.0,30.28,ENE,74,2.0,6.0,31,0.00,,---,0.00,VWS V14.01,2013-03-07 19:22:00,
2013-03-07 13:27:00,63.9,34.3,30.28,East,95,0.0,6.0,33,0.00,,---,0.00,VWS V14.01,2013-03-07 19:27:00,
2013-03-07 13:32:00,62.8,31.7,30.27,North,5,1.0,6.0,31,0.00,,---,0.00,VWS V14.01,2013-03-07 19:32:00,
2013-03-07 13:37:00,63.9,33.5,30.27,ENE,69,1.0,2.0,32,0.00,,---,0.00,VWS V14.01,2013-03-07 19:37:00,
2013-03-07 13:42:00,64.1,34.4,30.27,NE,38,4.0,5.0,33,0.00,,---,0.00,VWS V14.01,2013-03-07 19:42:00,
2013-03-07 13:47:00,63.1,35.0,30.27,East,88,2.0,5.0,35,0.00,,---,0.00,VWS V14.01,2013-03-07 19:47:00,
2013-03-07 13:52:00,63.8,33.4,30.26,East,98,3.0,5.0,32,0.00,,---,0.00,VWS V14.01,2013-03-07 19:52:00,
2013-03-07 13:57:00,63.6,33.2,30.26,North,5,4.0,5.0,32,0.00,,---,0.00,VWS V14.01,2013-03-07 19:57:00,
2013-03-07 14:02:00,63.9,33.5,30.26,NNW,334,1.0,5.0,32,0.00,,---,0.00,VWS V14.01,2013-03-07 20:02:00,
2013-03-07 14:06:00,64.1,32.9,30.26,WNW,288,1.0,5.0,31,0.00,,---,0.00,VWS V14.01,2013-03-07 20:06:00,
2013-03-07 14:07:00,64.1,33.7,30.26,SSW,200,0.0,3.0,32,0.00,,---,0.00,VWS V14.01,2013-03-07 20:07:00,
2013-03-07 14:12:00,64.0,33.6,30.25,NNE,32,3.0,7.0,32,0.00,,---,0.00,VWS V14.01,2013-03-07 20:12:00,
2013-03-07 14:17:00,64.0,32.0,30.25,ESE,118,1.0,7.0,30,0.00,,---,0.00,VWS V14.01,2013-03-07 20:17:00,
2013-03-07 14:22:00,63.1,30.4,30.25,SE,132,2.0,7.0,29,0.00,,---,0.00,VWS V14.01,2013-03-07 20:22:00,
2013-03-07 14:27:00,62.9,33.4,30.25,ESE,120,2.0,7.0,33,0.00,,---,0.00,VWS V14.01,2013-03-07 20:27:00,
2013-03-07 14:32:00,63.4,32.3,30.25,East,82,2.0,7.0,31,0.00,,---,0.00,VWS V14.01,2013-03-07 20:32:00,
2013-03-07 14:37:00,63.9,32.7,30.25,North,5,2.0,3.0,31,0.00,,---,0.00,VWS V14.01,2013-03-07 20:37:00,
2013-03-07 14:42:00,64.8,33.5,30.25,WNW,286,0.0,3.0,31,0.00,,---,0.00,VWS V14.01,2013-03-07 20:42:00,
2013-03-07 14:47:00,65.0,35.2,30.25,East,92,2.0,3.0,33,0.00,,---,0.00,VWS V14.01,2013-03-07 20:47:00,
2013-03-07 14:52:00,65.6,35.8,30.25,West,269,4.0,4.0,33,0.00,,---,0.00,VWS V14.01,2013-03-07 20:52:00,
2013-03-07 14:58:00,65.6,32.5,30.25,WNW,289,1.0,5.0,29,0.00,,---,0.00,VWS V14.01,2013-03-07 20:58:00,
2013-03-07 15:03:00,65.7,32.6,30.25,WSW,242,3.0,7.0,29,0.00,,---,0.00,VWS V14.01,2013-03-07 21:03:00,
2013-03-07 15:08:00,64.7,33.4,30.24,West,269,0.0,2.0,31,0.00,,---,0.00,VWS V14.01,2013-03-07 21:08:00,
2013-03-07 15:13:00,65.1,32.9,30.24,SSW,213,1.0,6.0,30,0.00,,---,0.00,VWS V14.01,2013-03-07 21:13:00,
2013-03-07 15:18:00,64.8,32.7,30.24,ENE,60,0.0,6.0,30,0.00,,---,0.00,VWS V14.01,2013-03-07 21:18:00,
2013-03-07 15:23:00,65.0,34.5,30.24,NE,56,2.0,6.0,32,0.00,,---,0.00,VWS V14.01,2013-03-07 21:23:00,
2013-03-07 15:28:00,65.3,33.1,30.24,East,93,1.0,6.0,30,0.00,,---,0.00,VWS V14.01,2013-03-07 21:28:00,
2013-03-07 15:33:00,64.5,33.2,30.24,ESE,117,3.0,6.0,31,0.00,,---,0.00,VWS V14.01,2013-03-07 21:33:00,
2013-03-07 15:36:00,64.4,33.9,30.23,ESE,106,2.0,6.0,32,0.00,,---,0.00,VWS V14.01,2013-03-07 21:36:00,
2013-03-07 15:38:00,64.4,33.9,30.23,ESE,102,2.0,3.0,32,0.00,,---,0.00,VWS V14.01,2013-03-07 21:38:00,
2013-03-07 15:43:00,63.9,32.7,30.23,ENE,66,0.0,3.0,31,0.00,,---,0.00,VWS V14.01,2013-03-07 21:43:00,
2013-03-07 15:48:00,64.3,33.8,30.23,South,175,4.0,5.0,32,0.00,,---,0.00,VWS V14.01,2013-03-07 21:48:00,
2013-03-07 15:53:00,64.9,35.1,30.23,South,176,2.0,5.0,33,0.00,,---,0.00,VWS V14.01,2013-03-07 21:53:00,
2013-03-07 15:58:00,64.5,33.2,30.23,South,174,0.0,5.0,31,0.00,,---,0.00,VWS V14.01,2013-03-07 21:58:00,
2013-03-07 16:03:00,64.6,32.5,30.23,South,175,0.0,5.0,30,0.00,,---,0.00,VWS V14.01,2013-03-07 22:03:00,
2013-03-07 16:06:00,64.4,33.9,30.23,SSW,197,0.0,5.0,32,0.00,,---,0.00,VWS V14.01,2013-03-07 22:06:00,
2013-03-07 16:08:00,64.2,34.5,30.23,West,273,0.0,1.0,33,0.00,,---,0.00,VWS V14.01,2013-03-07 22:08:00,
2013-03-07 16:13:00,63.7,34.8,30.23,WNW,300,1.0,2.0,34,0.00,,---,0.00,VWS V14.01,2013-03-07 22:13:00,
2013-03-07 16:18:00,63.6,34.7,30.23,NE,36,0.0,2.0,34,0.00,,---,0.00,VWS V14.01,2013-03-07 22:18:00,
2013-03-07 16:23:00,63.6,34.7,30.22,WNW,297,0.0,3.0,34,0.00,,---,0.00,VWS V14.01,2013-03-07 22:23:00,
2013-03-07 16:28:00,64.1,35.2,30.22,West,281,0.0,3.0,34,0.00,,---,0.00,VWS V14.01,2013-03-07 22:28:00,
2013-03-07 16:33:00,64.4,35.5,30.23,SSE,165,1.0,3.0,34,0.00,,---,0.00,VWS V14.01,2013-03-07 22:33:00,
2013-03-07 16:36:00,64.4,35.5,30.23,SSE,165,1.0,3.0,34,0.00,,---,0.00,VWS V14.01,2013-03-07 22:36:00,
2013-03-07 16:38:00,64.1,35.9,30.23,SSE,165,0.0,2.0,35,0.00,,---,0.00,VWS V14.01,2013-03-07 22:38:00,
2013-03-07 16:43:00,63.3,34.5,30.23,ESE,117,1.0,2.0,34,0.00,,---,0.00,VWS V14.01,2013-03-07 22:43:00,
2013-03-07 16:48:00,63.2,35.1,30.23,ESE,117,0.0,2.0,35,0.00,,---,0.00,VWS V14.01,2013-03-07 22:48:00,
2013-03-07 16:53:00,63.0,34.9,30.23,ESE,117,0.0,2.0,35,0.00,,---,0.00,VWS V14.01,2013-03-07 22:53:00,
2013-03-07 16:58:00,62.6,35.3,30.23,ESE,119,1.0,3.0,36,0.00,,---,0.00,VWS V14.01,2013-03-07 22:58:00,
2013-03-07 17:03:00,62.2,36.3,30.23,ESE,119,0.0,3.0,38,0.00,,---,0.00,VWS V14.01,2013-03-07 23:03:00,
2013-03-07 17:08:00,62.1,34.8,30.23,ESE,119,0.0,2.0,36,0.00,,---,0.00,VWS V14.01,2013-03-07 23:08:00,
2013-03-07 17:13:00,61.9,35.4,30.23,East,80,1.0,3.0,37,0.00,,---,0.00,VWS V14.01,2013-03-07 23:13:00,
2013-03-07 17:18:00,61.7,35.9,30.23,East,80,0.0,3.0,38,0.00,,---,0.00,VWS V14.01,2013-03-07 23:18:00,
2013-03-07 17:23:00,61.3,35.5,30.23,East,80,0.0,3.0,38,0.00,,---,0.00,VWS V14.01,2013-03-07 23:23:00,
2013-03-07 17:28:00,61.2,36.1,30.22,East,80,1.0,3.0,39,0.00,,---,0.00,VWS V14.01,2013-03-07 23:28:00,
2013-03-07 17:33:00,60.7,36.3,30.22,East,80,0.0,3.0,40,0.00,,---,0.00,VWS V14.01,2013-03-07 23:33:00,
2013-03-07 17:38:00,60.3,35.9,30.23,East,80,1.0,1.0,40,0.00,,---,0.00,VWS V14.01,2013-03-07 23:38:00,
2013-03-07 17:43:00,59.7,36.6,30.23,East,80,0.0,2.0,42,0.00,,---,0.00,VWS V14.01,2013-03-07 23:43:00,
2013-03-07 17:48:00,59.3,36.8,30.23,North,5,0.0,2.0,43,0.00,,---,0.00,VWS V14.01,2013-03-07 23:48:00,
2013-03-07 17:53:00,59.1,36.0,30.23,North,5,0.0,2.0,42,0.00,,---,0.00,VWS V14.01,2013-03-07 23:53:00,
2013-03-07 17:58:00,58.6,36.8,30.23,North,5,0.0,2.0,44,0.00,,---,0.00,VWS V14.01,2013-03-07 23:58:00,
2013-03-07 18:03:00,57.9,37.8,30.23,North,5,0.0,2.0,47,0.00,,---,0.00,VWS V14.01,2013-03-08 00:03:00,
2013-03-07 18:06:00,57.4,38.9,30.23,North,5,0.0,2.0,50,0.00,,---,0.00,VWS V14.01,2013-03-08 00:06:00,
2013-03-07 18:08:00,57.1,39.2,30.23,North,5,0.0,0.0,51,0.00,,---,0.00,VWS V14.01,2013-03-08 00:08:00,
2013-03-07 18:13:00,56.4,39.0,30.23,North,5,0.0,0.0,52,0.00,,---,0.00,VWS V14.01,2013-03-08 00:13:00,
2013-03-07 18:18:00,56.0,39.1,30.23,North,5,0.0,0.0,53,0.00,,---,0.00,VWS V14.01,2013-03-08 00:18:00,
2013-03-07 18:23:00,55.3,39.9,30.24,North,5,0.0,0.0,56,0.00,,---,0.00,VWS V14.01,2013-03-08 00:23:00,
2013-03-07 18:28:00,54.8,40.3,30.24,North,5,0.0,0.0,58,0.00,,---,0.00,VWS V14.01,2013-03-08 00:28:00,
2013-03-07 18:33:00,54.0,40.9,30.24,North,5,0.0,0.0,61,0.00,,---,0.00,VWS V14.01,2013-03-08 00:33:00,
2013-03-07 18:36:00,53.6,40.9,30.24,North,5,0.0,0.0,62,0.00,,---,0.00,VWS V14.01,2013-03-08 00:36:00,
2013-03-07 18:38:00,53.4,41.1,30.24,North,5,0.0,0.0,63,0.00,,---,0.00,VWS V14.01,2013-03-08 00:38:00,
2013-03-07 18:43:00,53.0,40.8,30.24,North,5,0.0,0.0,63,0.00,,---,0.00,VWS V14.01,2013-03-08 00:43:00,
2013-03-07 18:48:00,52.5,41.1,30.24,North,5,0.0,0.0,65,0.00,,---,0.00,VWS V14.01,2013-03-08 00:48:00,
2013-03-07 18:59:00,51.8,40.4,30.23,North,5,0.0,0.0,65,0.00,,---,0.00,VWS V14.01,2013-03-08 00:59:00,
2013-03-07 19:04:00,51.4,40.4,30.24,North,5,0.0,0.0,66,0.00,,---,0.00,VWS V14.01,2013-03-08 01:04:00,
2013-03-07 19:06:00,51.1,40.5,30.24,North,5,0.0,0.0,67,0.00,,---,0.00,VWS V14.01,2013-03-08 01:06:00,
2013-03-07 19:14:00,50.5,40.3,30.24,North,5,0.0,0.0,68,0.00,,---,0.00,VWS V14.01,2013-03-08 01:14:00,
2013-03-07 19:19:00,50.2,40.8,30.24,North,5,0.0,1.0,70,0.00,,---,0.00,VWS V14.01,2013-03-08 01:19:00,
2013-03-07 19:24:00,49.9,40.5,30.24,North,5,0.0,1.0,70,0.00,,---,0.00,VWS V14.01,2013-03-08 01:24:00,
2013-03-07 19:29:00,49.5,40.1,30.24,North,5,0.0,1.0,70,0.00,,---,0.00,VWS V14.01,2013-03-08 01:29:00,
2013-03-07 19:34:00,49.2,40.6,30.24,North,5,0.0,1.0,72,0.00,,---,0.00,VWS V14.01,2013-03-08 01:34:00,
2013-03-07 19:36:00,49.1,40.5,30.24,North,5,0.0,1.0,72,0.00,,---,0.00,VWS V14.01,2013-03-08 01:36:00,
2013-03-07 19:39:00,49.0,40.4,30.24,North,5,0.0,0.0,72,0.00,,---,0.00,VWS V14.01,2013-03-08 01:39:00,
2013-03-07 19:44:00,48.6,40.3,30.24,North,5,0.0,0.0,73,0.00,,---,0.00,VWS V14.01,2013-03-08 01:44:00,
2013-03-07 19:49:00,48.4,40.2,30.24,North,5,0.0,0.0,73,0.00,,---,0.00,VWS V14.01,2013-03-08 01:49:00,
2013-03-07 19:54:00,48.1,40.2,30.24,North,5,0.0,0.0,74,0.00,,---,0.00,VWS V14.01,2013-03-08 01:54:00,
2013-03-07 19:59:00,47.9,40.4,30.24,North,5,0.0,1.0,75,0.00,,---,0.00,VWS V14.01,2013-03-08 01:59:00,
2013-03-07 20:04:00,47.5,40.3,30.24,North,5,0.0,1.0,76,0.00,,---,0.00,VWS V14.01,2013-03-08 02:04:00,
2013-03-07 20:09:00,47.2,40.4,30.24,North,5,0.0,1.0,77,0.00,,---,0.00,VWS V14.01,2013-03-08 02:09:00,
2013-03-07 20:14:00,46.9,40.1,30.24,North,5,0.0,1.0,77,0.00,,---,0.00,VWS V14.01,2013-03-08 02:14:00,
2013-03-07 20:19:00,46.3,39.8,30.25,North,5,0.0,1.0,78,0.00,,---,0.00,VWS V14.01,2013-03-08 02:19:00,
2013-03-07 20:24:00,46.2,40.1,30.24,North,5,0.0,1.0,79,0.00,,---,0.00,VWS V14.01,2013-03-08 02:24:00,
2013-03-07 20:29:00,46.1,39.6,30.24,North,5,0.0,1.0,78,0.00,,---,0.00,VWS V14.01,2013-03-08 02:29:00,
2013-03-07 20:34:00,45.8,39.7,30.24,North,5,0.0,1.0,79,0.00,,---,0.00,VWS V14.01,2013-03-08 02:34:00,
2013-03-07 20:39:00,45.6,39.2,30.24,North,5,0.0,0.0,78,0.00,,---,0.00,VWS V14.01,2013-03-08 02:39:00,
2013-03-07 20:44:00,45.5,39.4,30.24,North,5,0.0,0.0,79,0.00,,---,0.00,VWS V14.01,2013-03-08 02:44:00,
2013-03-07 20:49:00,45.2,39.4,30.24,North,5,0.0,0.0,80,0.00,,---,0.00,VWS V14.01,2013-03-08 02:49:00,
2013-03-07 20:54:00,45.1,39.6,30.25,North,5,0.0,0.0,81,0.00,,---,0.00,VWS V14.01,2013-03-08 02:54:00,
2013-03-07 20:59:00,45.0,39.5,30.24,North,5,0.0,0.0,81,0.00,,---,0.00,VWS V14.01,2013-03-08 02:59:00,
2013-03-07 21:04:00,44.8,39.7,30.24,North,5,0.0,0.0,82,0.00,,---,0.00,VWS V14.01,2013-03-08 03:04:00,
2013-03-07 21:06:00,44.7,39.2,30.24,North,5,0.0,0.0,81,0.00,,---,0.00,VWS V14.01,2013-03-08 03:06:00,
2013-03-07 21:14:00,44.4,39.3,30.25,North,5,0.0,0.0,82,0.00,,---,0.00,VWS V14.01,2013-03-08 03:14:00,
2013-03-07 21:19:00,44.3,39.2,30.24,North,5,0.0,0.0,82,0.00,,---,0.00,VWS V14.01,2013-03-08 03:19:00,
2013-03-07 21:24:00,44.0,38.9,30.25,North,5,0.0,0.0,82,0.00,,---,0.00,VWS V14.01,2013-03-08 03:24:00,
2013-03-07 21:29:00,43.5,38.7,30.25,North,5,0.0,0.0,83,0.00,,---,0.00,VWS V14.01,2013-03-08 03:29:00,
2013-03-07 21:34:00,43.4,38.6,30.25,North,5,0.0,0.0,83,0.00,,---,0.00,VWS V14.01,2013-03-08 03:34:00,
2013-03-07 21:36:00,43.5,39.0,30.25,North,5,0.0,0.0,84,0.00,,---,0.00,VWS V14.01,2013-03-08 03:36:00,
2013-03-07 21:39:00,43.4,38.6,30.26,North,5,0.0,0.0,83,0.00,,---,0.00,VWS V14.01,2013-03-08 03:39:00,
2013-03-07 21:44:00,43.3,38.8,30.25,North,5,0.0,0.0,84,0.00,,---,0.00,VWS V14.01,2013-03-08 03:44:00,
2013-03-07 21:49:00,43.3,38.8,30.25,North,5,1.0,1.0,84,0.00,,---,0.00,VWS V14.01,2013-03-08 03:49:00,
2013-03-07 21:54:00,43.1,38.6,30.25,North,5,0.0,2.0,84,0.00,,---,0.00,VWS V14.01,2013-03-08 03:54:00,
2013-03-07 21:59:00,42.9,38.7,30.25,North,5,0.0,2.0,85,0.00,,---,0.00,VWS V14.01,2013-03-08 03:59:00,
2013-03-07 22:04:00,42.6,38.4,30.25,North,5,0.0,2.0,85,0.00,,---,0.00,VWS V14.01,2013-03-08 04:04:00,
2013-03-07 22:09:00,42.4,38.5,30.26,North,5,0.0,0.0,86,0.00,,---,0.00,VWS V14.01,2013-03-08 04:09:00,
2013-03-07 22:14:00,42.2,38.3,30.26,North,5,0.0,1.0,86,0.00,,---,0.00,VWS V14.01,2013-03-08 04:14:00,
2013-03-07 22:19:00,42.0,38.1,30.26,North,5,0.0,1.0,86,0.00,,---,0.00,VWS V14.01,2013-03-08 04:19:00,
2013-03-07 22:24:00,42.0,38.1,30.26,North,5,0.0,1.0,86,0.00,,---,0.00,VWS V14.01,2013-03-08 04:24:00,
2013-03-07 22:29:00,42.1,38.2,30.26,North,5,0.0,1.0,86,0.00,,---,0.00,VWS V14.01,2013-03-08 04:29:00,
2013-03-07 22:34:00,41.9,38.3,30.25,North,5,0.0,1.0,87,0.00,,---,0.00,VWS V14.01,2013-03-08 04:34:00,
2013-03-07 22:39:00,41.8,38.2,30.25,North,5,0.0,0.0,87,0.00,,---,0.00,VWS V14.01,2013-03-08 04:39:00,
2013-03-07 22:44:00,41.8,38.2,30.25,North,5,0.0,0.0,87,0.00,,---,0.00,VWS V14.01,2013-03-08 04:44:00,
2013-03-07 22:49:00,41.5,38.2,30.25,North,5,0.0,0.0,88,0.00,,---,0.00,VWS V14.01,2013-03-08 04:49:00,
2013-03-07 22:54:00,41.5,38.2,30.25,North,5,0.0,0.0,88,0.00,,---,0.00,VWS V14.01,2013-03-08 04:54:00,
2013-03-07 22:59:00,41.5,38.2,30.25,North,5,0.0,0.0,88,0.00,,---,0.00,VWS V14.01,2013-03-08 04:59:00,
2013-03-07 23:04:00,41.4,38.4,30.25,North,5,0.0,0.0,89,0.00,,---,0.00,VWS V14.01,2013-03-08 05:04:00,
2013-03-07 23:09:00,41.1,38.1,30.25,North,5,0.0,0.0,89,0.00,,---,0.00,VWS V14.01,2013-03-08 05:09:00,
2013-03-07 23:14:00,41.0,38.3,30.26,North,5,0.0,0.0,90,0.00,,---,0.00,VWS V14.01,2013-03-08 05:14:00,
2013-03-07 23:19:00,40.8,37.8,30.26,North,5,0.0,0.0,89,0.00,,---,0.00,VWS V14.01,2013-03-08 05:19:00,
2013-03-07 23:25:00,40.8,38.1,30.25,North,5,0.0,0.0,90,0.00,,---,0.00,VWS V14.01,2013-03-08 05:25:00,
2013-03-07 23:30:00,40.8,37.8,30.25,North,5,0.0,0.0,89,0.00,,---,0.00,VWS V14.01,2013-03-08 05:30:00,
2013-03-07 23:35:00,40.7,38.0,30.25,North,5,0.0,0.0,90,0.00,,---,0.00,VWS V14.01,2013-03-08 05:35:00,
2013-03-07 23:36:00,40.7,38.0,30.25,North,5,0.0,0.0,90,0.00,,---,0.00,VWS V14.01,2013-03-08 05:36:00,
2013-03-07 23:40:00,40.7,38.0,30.25,North,5,0.0,0.0,90,0.00,,---,0.00,VWS V14.01,2013-03-08 05:40:00,
2013-03-07 23:45:00,40.6,37.9,30.24,North,5,0.0,0.0,90,0.00,,---,0.00,VWS V14.01,2013-03-08 05:45:00,
2013-03-07 23:50:00,40.4,37.7,30.24,North,5,0.0,0.0,90,0.00,,---,0.00,VWS V14.01,2013-03-08 05:50:00,
2013-03-07 23:55:00,40.2,37.5,30.24,North,5,0.0,0.0,90,0.00,,---,0.00,VWS V14.01,2013-03-08 05:55:00,